Avon Park, Florida
Current Conditions -  °F | °C
As of 8:35 PM on Thursday 27 Nov 2014 (Local Time) from KBOW Reporting Station
Clear Clear  
Wind Chill: 12°   Ceiling: Unl
Heat Index: 12°   Visibility: 10mi
Dew Point:   Wind: 8mph
Humidity: 67%   Direction: 330°NNW
Pressure: 30.27"   Gusts: NA
Location:  27.6°N, 81.51°W
Report Text: KBOW 280135Z AUTO 33007KT 10SM CLR 12/06 A3027 RMK AO2
Loading
Personal Weather Stations






























Interactive Weather Map New forecast layout! Learn more

10-Day Weather Forecast

Advertisements
Track Severe Weather on mobile